sensor_id;sensor_type;location;lat;lon;timestamp;temperature;humidity
37322;DHT22;23697;48.684;9.032;2022-11-20T00:00:38;4.30;89.20
37322;DHT22;23697;48.684;9.032;2022-11-20T00:03:07;4.20;89.20
37322;DHT22;23697;48.684;9.032;2022-11-20T00:05:36;4.20;89.20
37322;DHT22;23697;48.684;9.032;2022-11-20T00:08:06;4.20;89.20
37322;DHT22;23697;48.684;9.032;2022-11-20T00:10:36;4.20;89.20
37322;DHT22;23697;48.684;9.032;2022-11-20T00:13:02;4.10;89.20
37322;DHT22;23697;48.684;9.032;2022-11-20T00:15:29;4.10;89.30
37322;DHT22;23697;48.684;9.032;2022-11-20T00:17:56;4.20;89.30
37322;DHT22;23697;48.684;9.032;2022-11-20T00:20:23;4.10;89.30
37322;DHT22;23697;48.684;9.032;2022-11-20T00:22:50;4.10;89.30
37322;DHT22;23697;48.684;9.032;2022-11-20T00:25:21;4.10;89.30
37322;DHT22;23697;48.684;9.032;2022-11-20T00:27:48;4.10;89.40
37322;DHT22;23697;48.684;9.032;2022-11-20T00:30:15;4.20;89.40
37322;DHT22;23697;48.684;9.032;2022-11-20T00:32:42;4.10;89.40
37322;DHT22;23697;48.684;9.032;2022-11-20T00:35:09;4.20;89.40
37322;DHT22;23697;48.684;9.032;2022-11-20T00:37:39;4.10;89.40
37322;DHT22;23697;48.684;9.032;2022-11-20T00:40:07;4.20;89.40
37322;DHT22;23697;48.684;9.032;2022-11-20T00:42:35;4.10;89.40
37322;DHT22;23697;48.684;9.032;2022-11-20T00:45:03;4.20;89.40
37322;DHT22;23697;48.684;9.032;2022-11-20T00:47:30;4.10;89.40
37322;DHT22;23697;48.684;9.032;2022-11-20T00:49:56;4.20;89.40
37322;DHT22;23697;48.684;9.032;2022-11-20T00:52:31;4.10;89.40
37322;DHT22;23697;48.684;9.032;2022-11-20T00:54:58;4.10;89.40
37322;DHT22;23697;48.684;9.032;2022-11-20T00:57:28;4.10;89.40
37322;DHT22;23697;48.684;9.032;2022-11-20T01:00:02;4.00;89.40
37322;DHT22;23697;48.684;9.032;2022-11-20T01:02:29;4.00;89.50
37322;DHT22;23697;48.684;9.032;2022-11-20T01:04:56;4.00;89.50
37322;DHT22;23697;48.684;9.032;2022-11-20T01:07:22;3.90;89.50
37322;DHT22;23697;48.684;9.032;2022-11-20T01:09:49;3.80;89.50
37322;DHT22;23697;48.684;9.032;2022-11-20T01:12:17;3.90;89.60
37322;DHT22;23697;48.684;9.032;2022-11-20T01:14:45;3.80;89.50
37322;DHT22;23697;48.684;9.032;2022-11-20T01:17:15;3.80;89.50
37322;DHT22;23697;48.684;9.032;2022-11-20T01:19:42;3.70;89.50
37322;DHT22;23697;48.684;9.032;2022-11-20T01:22:22;3.70;89.50
37322;DHT22;23697;48.684;9.032;2022-11-20T01:24:50;3.70;89.50
37322;DHT22;23697;48.684;9.032;2022-11-20T01:27:17;3.70;89.50
37322;DHT22;23697;48.684;9.032;2022-11-20T01:29:47;3.60;89.40
37322;DHT22;23697;48.684;9.032;2022-11-20T01:32:15;3.70;89.50
37322;DHT22;23697;48.684;9.032;2022-11-20T01:34:42;3.60;89.50
37322;DHT22;23697;48.684;9.032;2022-11-20T01:37:09;3.60;89.50
37322;DHT22;23697;48.684;9.032;2022-11-20T01:39:36;3.50;89.50
37322;DHT22;23697;48.684;9.032;2022-11-20T01:42:03;3.50;89.40
37322;DHT22;23697;48.684;9.032;2022-11-20T01:44:53;3.40;89.40
37322;DHT22;23697;48.684;9.032;2022-11-20T01:47:26;3.40;89.40
37322;DHT22;23697;48.684;9.032;2022-11-20T01:49:58;3.30;89.40
37322;DHT22;23697;48.684;9.032;2022-11-20T01:52:26;3.30;89.50
37322;DHT22;23697;48.684;9.032;2022-11-20T01:54:57;3.30;89.50
37322;DHT22;23697;48.684;9.032;2022-11-20T01:57:25;3.40;89.50
37322;DHT22;23697;48.684;9.032;2022-11-20T02:00:04;3.20;89.50
37322;DHT22;23697;48.684;9.032;2022-11-20T02:02:34;3.20;89.60
37322;DHT22;23697;48.684;9.032;2022-11-20T02:05:08;3.10;89.50
37322;DHT22;23697;48.684;9.032;2022-11-20T02:07:36;3.10;89.60
37322;DHT22;23697;48.684;9.032;2022-11-20T02:10:04;3.10;89.60
37322;DHT22;23697;48.684;9.032;2022-11-20T02:12:31;3.10;89.70
37322;DHT22;23697;48.684;9.032;2022-11-20T02:15:16;3.10;89.80
37322;DHT22;23697;48.684;9.032;2022-11-20T02:17:45;3.20;89.90
37322;DHT22;23697;48.684;9.032;2022-11-20T02:20:12;3.20;90.00
37322;DHT22;23697;48.684;9.032;2022-11-20T02:22:47;3.20;90.10
37322;DHT22;23697;48.684;9.032;2022-11-20T02:25:17;3.30;90.20
37322;DHT22;23697;48.684;9.032;2022-11-20T02:27:48;3.30;90.20
37322;DHT22;23697;48.684;9.032;2022-11-20T02:30:15;3.30;90.20
37322;DHT22;23697;48.684;9.032;2022-11-20T02:32:42;3.30;90.20
37322;DHT22;23697;48.684;9.032;2022-11-20T02:35:38;3.40;90.30
37322;DHT22;23697;48.684;9.032;2022-11-20T02:37:59;3.40;90.30
37322;DHT22;23697;48.684;9.032;2022-11-20T02:40:28;3.40;90.40
37322;DHT22;23697;48.684;9.032;2022-11-20T02:42:56;3.40;90.40
37322;DHT22;23697;48.684;9.032;2022-11-20T02:45:23;3.40;90.40
37322;DHT22;23697;48.684;9.032;2022-11-20T02:47:51;3.40;90.50
37322;DHT22;23697;48.684;9.032;2022-11-20T02:50:18;3.50;90.50
37322;DHT22;23697;48.684;9.032;2022-11-20T02:52:44;3.50;90.60
37322;DHT22;23697;48.684;9.032;2022-11-20T02:55:12;3.50;90.50
37322;DHT22;23697;48.684;9.032;2022-11-20T02:57:40;3.50;90.50
37322;DHT22;23697;48.684;9.032;2022-11-20T03:00:08;3.50;90.50
37322;DHT22;23697;48.684;9.032;2022-11-20T03:02:35;3.60;90.60
37322;DHT22;23697;48.684;9.032;2022-11-20T03:05:03;3.60;90.60
37322;DHT22;23697;48.684;9.032;2022-11-20T03:07:29;3.50;90.60
37322;DHT22;23697;48.684;9.032;2022-11-20T03:09:56;3.50;90.60
37322;DHT22;23697;48.684;9.032;2022-11-20T03:12:23;3.50;90.60
37322;DHT22;23697;48.684;9.032;2022-11-20T03:14:51;3.60;90.60
37322;DHT22;23697;48.684;9.032;2022-11-20T03:17:18;3.60;90.60
37322;DHT22;23697;48.684;9.032;2022-11-20T03:19:45;3.50;90.50
37322;DHT22;23697;48.684;9.032;2022-11-20T03:22:12;3.50;90.50
37322;DHT22;23697;48.684;9.032;2022-11-20T03:24:39;3.40;90.50
37322;DHT22;23697;48.684;9.032;2022-11-20T03:27:06;3.40;90.50
37322;DHT22;23697;48.684;9.032;2022-11-20T03:29:32;3.40;90.40
37322;DHT22;23697;48.684;9.032;2022-11-20T03:32:01;3.40;90.50
37322;DHT22;23697;48.684;9.032;2022-11-20T03:34:27;3.30;90.50
37322;DHT22;23697;48.684;9.032;2022-11-20T03:36:55;3.20;90.40
37322;DHT22;23697;48.684;9.032;2022-11-20T03:39:21;3.10;90.40
37322;DHT22;23697;48.684;9.032;2022-11-20T03:41:49;3.10;90.40
37322;DHT22;23697;48.684;9.032;2022-11-20T03:44:15;3.10;90.50
37322;DHT22;23697;48.684;9.032;2022-11-20T03:46:42;3.10;90.50
37322;DHT22;23697;48.684;9.032;2022-11-20T03:49:10;3.10;90.50
37322;DHT22;23697;48.684;9.032;2022-11-20T03:51:38;3.00;90.50
37322;DHT22;23697;48.684;9.032;2022-11-20T03:54:07;3.00;90.50
37322;DHT22;23697;48.684;9.032;2022-11-20T03:56:37;2.90;90.50
37322;DHT22;23697;48.684;9.032;2022-11-20T03:59:05;2.90;90.60
37322;DHT22;23697;48.684;9.032;2022-11-20T04:01:33;3.00;90.60
37322;DHT22;23697;48.684;9.032;2022-11-20T04:04:01;3.00;90.60
37322;DHT22;23697;48.684;9.032;2022-11-20T04:06:32;3.00;90.60
37322;DHT22;23697;48.684;9.032;2022-11-20T04:08:59;3.00;90.70
37322;DHT22;23697;48.684;9.032;2022-11-20T04:11:28;3.10;90.70
37322;DHT22;23697;48.684;9.032;2022-11-20T04:13:56;3.10;90.70
37322;DHT22;23697;48.684;9.032;2022-11-20T04:16:25;3.10;90.70
37322;DHT22;23697;48.684;9.032;2022-11-20T04:18:52;3.10;90.70
37322;DHT22;23697;48.684;9.032;2022-11-20T04:21:20;3.10;90.70
37322;DHT22;23697;48.684;9.032;2022-11-20T04:23:48;3.10;90.70
37322;DHT22;23697;48.684;9.032;2022-11-20T04:26:15;3.20;90.80
37322;DHT22;23697;48.684;9.032;2022-11-20T04:28:42;3.20;90.70
37322;DHT22;23697;48.684;9.032;2022-11-20T04:31:10;3.20;90.70
37322;DHT22;23697;48.684;9.032;2022-11-20T04:33:38;3.20;90.70
37322;DHT22;23697;48.684;9.032;2022-11-20T04:36:07;3.30;90.80
37322;DHT22;23697;48.684;9.032;2022-11-20T04:38:34;3.30;90.80
37322;DHT22;23697;48.684;9.032;2022-11-20T04:41:04;3.40;90.80
37322;DHT22;23697;48.684;9.032;2022-11-20T04:43:32;3.50;90.80
37322;DHT22;23697;48.684;9.032;2022-11-20T04:46:00;3.50;90.80
37322;DHT22;23697;48.684;9.032;2022-11-20T04:48:28;3.60;90.70
37322;DHT22;23697;48.684;9.032;2022-11-20T04:50:55;3.60;90.70
37322;DHT22;23697;48.684;9.032;2022-11-20T04:53:25;3.60;90.80
37322;DHT22;23697;48.684;9.032;2022-11-20T04:55:59;3.60;90.80
37322;DHT22;23697;48.684;9.032;2022-11-20T04:58:27;3.60;90.70
37322;DHT22;23697;48.684;9.032;2022-11-20T05:01:00;3.70;90.70
37322;DHT22;23697;48.684;9.032;2022-11-20T05:03:27;3.70;90.60
37322;DHT22;23697;48.684;9.032;2022-11-20T05:05:54;3.80;90.60
37322;DHT22;23697;48.684;9.032;2022-11-20T05:08:21;3.80;90.50
37322;DHT22;23697;48.684;9.032;2022-11-20T05:10:48;3.80;90.50
37322;DHT22;23697;48.684;9.032;2022-11-20T05:13:17;3.80;90.50
37322;DHT22;23697;48.684;9.032;2022-11-20T05:15:46;3.90;90.50
37322;DHT22;23697;48.684;9.032;2022-11-20T05:18:17;3.90;90.40
37322;DHT22;23697;48.684;9.032;2022-11-20T05:20:44;3.90;90.40
37322;DHT22;23697;48.684;9.032;2022-11-20T05:23:13;3.90;90.40
37322;DHT22;23697;48.684;9.032;2022-11-20T05:25:39;4.00;90.40
37322;DHT22;23697;48.684;9.032;2022-11-20T05:28:08;4.00;90.30
37322;DHT22;23697;48.684;9.032;2022-11-20T05:30:38;4.00;90.20
37322;DHT22;23697;48.684;9.032;2022-11-20T05:33:08;4.00;90.20
37322;DHT22;23697;48.684;9.032;2022-11-20T05:35:34;4.00;90.20
37322;DHT22;23697;48.684;9.032;2022-11-20T05:38:01;4.00;90.20
37322;DHT22;23697;48.684;9.032;2022-11-20T05:40:28;4.00;90.20
37322;DHT22;23697;48.684;9.032;2022-11-20T05:42:56;4.00;90.10
37322;DHT22;23697;48.684;9.032;2022-11-20T05:45:22;4.00;90.10
37322;DHT22;23697;48.684;9.032;2022-11-20T05:47:49;4.00;90.00
37322;DHT22;23697;48.684;9.032;2022-11-20T05:50:35;4.00;90.00
37322;DHT22;23697;48.684;9.032;2022-11-20T05:53:15;4.00;90.00
37322;DHT22;23697;48.684;9.032;2022-11-20T05:55:57;4.10;90.00
37322;DHT22;23697;48.684;9.032;2022-11-20T05:58:24;4.10;90.00
37322;DHT22;23697;48.684;9.032;2022-11-20T06:00:51;4.10;89.90
37322;DHT22;23697;48.684;9.032;2022-11-20T06:05:47;4.10;89.90
37322;DHT22;23697;48.684;9.032;2022-11-20T06:08:15;4.10;89.90
37322;DHT22;23697;48.684;9.032;2022-11-20T06:10:42;4.10;89.90
37322;DHT22;23697;48.684;9.032;2022-11-20T06:13:09;4.10;89.90
37322;DHT22;23697;48.684;9.032;2022-11-20T06:15:36;4.10;89.80
37322;DHT22;23697;48.684;9.032;2022-11-20T06:18:03;4.10;89.80
37322;DHT22;23697;48.684;9.032;2022-11-20T06:20:29;4.10;89.70
37322;DHT22;23697;48.684;9.032;2022-11-20T06:22:58;4.10;89.70
37322;DHT22;23697;48.684;9.032;2022-11-20T06:25:25;4.10;89.70
37322;DHT22;23697;48.684;9.032;2022-11-20T06:27:52;4.10;89.70
37322;DHT22;23697;48.684;9.032;2022-11-20T06:30:21;4.10;89.70
37322;DHT22;23697;48.684;9.032;2022-11-20T06:32:48;4.10;89.70
37322;DHT22;23697;48.684;9.032;2022-11-20T06:35:15;4.10;89.70
37322;DHT22;23697;48.684;9.032;2022-11-20T06:37:42;4.10;89.70
37322;DHT22;23697;48.684;9.032;2022-11-20T06:40:11;4.10;89.70
37322;DHT22;23697;48.684;9.032;2022-11-20T06:42:38;4.10;89.70
37322;DHT22;23697;48.684;9.032;2022-11-20T06:45:06;4.00;89.70
37322;DHT22;23697;48.684;9.032;2022-11-20T06:47:36;4.00;89.70
37322;DHT22;23697;48.684;9.032;2022-11-20T06:50:03;4.10;89.70
37322;DHT22;23697;48.684;9.032;2022-11-20T06:52:30;4.00;89.70
37322;DHT22;23697;48.684;9.032;2022-11-20T06:54:57;4.10;89.70
37322;DHT22;23697;48.684;9.032;2022-11-20T06:57:27;4.10;89.70
37322;DHT22;23697;48.684;9.032;2022-11-20T06:59:54;4.00;89.60
37322;DHT22;23697;48.684;9.032;2022-11-20T07:02:21;4.10;89.70
37322;DHT22;23697;48.684;9.032;2022-11-20T07:04:48;4.10;89.70
37322;DHT22;23697;48.684;9.032;2022-11-20T07:07:15;4.10;89.70
37322;DHT22;23697;48.684;9.032;2022-11-20T07:09:42;4.10;89.70
37322;DHT22;23697;48.684;9.032;2022-11-20T07:12:14;4.10;89.80
37322;DHT22;23697;48.684;9.032;2022-11-20T07:14:44;4.20;89.80
37322;DHT22;23697;48.684;9.032;2022-11-20T07:17:11;4.20;89.80
37322;DHT22;23697;48.684;9.032;2022-11-20T07:19:38;4.30;89.70
37322;DHT22;23697;48.684;9.032;2022-11-20T07:22:05;4.30;89.70
37322;DHT22;23697;48.684;9.032;2022-11-20T07:24:32;4.30;89.60
37322;DHT22;23697;48.684;9.032;2022-11-20T07:26:58;4.30;89.60
37322;DHT22;23697;48.684;9.032;2022-11-20T07:29:25;4.30;89.50
37322;DHT22;23697;48.684;9.032;2022-11-20T07:31:53;4.20;89.50
37322;DHT22;23697;48.684;9.032;2022-11-20T07:34:21;4.20;89.50
37322;DHT22;23697;48.684;9.032;2022-11-20T07:36:47;4.20;89.50
37322;DHT22;23697;48.684;9.032;2022-11-20T07:39:14;4.30;89.50
37322;DHT22;23697;48.684;9.032;2022-11-20T07:41:41;4.30;89.60
37322;DHT22;23697;48.684;9.032;2022-11-20T07:44:08;4.30;89.60
37322;DHT22;23697;48.684;9.032;2022-11-20T07:46:34;4.40;89.60
37322;DHT22;23697;48.684;9.032;2022-11-20T07:49:03;4.40;89.60
37322;DHT22;23697;48.684;9.032;2022-11-20T07:51:29;4.50;89.70
37322;DHT22;23697;48.684;9.032;2022-11-20T07:53:56;4.60;89.70
37322;DHT22;23697;48.684;9.032;2022-11-20T07:56:23;4.70;89.50
37322;DHT22;23697;48.684;9.032;2022-11-20T07:58:52;4.70;89.40
37322;DHT22;23697;48.684;9.032;2022-11-20T08:01:22;4.70;89.40
37322;DHT22;23697;48.684;9.032;2022-11-20T08:03:49;4.80;89.40
37322;DHT22;23697;48.684;9.032;2022-11-20T08:06:17;4.90;89.40
37322;DHT22;23697;48.684;9.032;2022-11-20T08:08:45;4.90;89.40
37322;DHT22;23697;48.684;9.032;2022-11-20T08:11:12;4.90;89.30
37322;DHT22;23697;48.684;9.032;2022-11-20T08:13:56;4.90;89.20
37322;DHT22;23697;48.684;9.032;2022-11-20T08:16:38;5.00;89.20
37322;DHT22;23697;48.684;9.032;2022-11-20T08:19:05;5.10;89.10
37322;DHT22;23697;48.684;9.032;2022-11-20T08:21:34;5.00;89.10
37322;DHT22;23697;48.684;9.032;2022-11-20T08:24:01;5.10;89.00
37322;DHT22;23697;48.684;9.032;2022-11-20T08:26:28;5.10;89.10
37322;DHT22;23697;48.684;9.032;2022-11-20T08:28:55;5.10;89.10
37322;DHT22;23697;48.684;9.032;2022-11-20T08:31:22;5.10;89.00
37322;DHT22;23697;48.684;9.032;2022-11-20T08:33:49;5.20;89.00
37322;DHT22;23697;48.684;9.032;2022-11-20T08:36:17;5.20;89.00
37322;DHT22;23697;48.684;9.032;2022-11-20T08:38:48;5.10;89.00
37322;DHT22;23697;48.684;9.032;2022-11-20T08:41:15;5.20;88.90
37322;DHT22;23697;48.684;9.032;2022-11-20T08:43:53;5.30;89.00
37322;DHT22;23697;48.684;9.032;2022-11-20T08:46:20;5.30;89.00
37322;DHT22;23697;48.684;9.032;2022-11-20T08:48:48;5.40;88.90
37322;DHT22;23697;48.684;9.032;2022-11-20T08:51:15;5.40;88.70
37322;DHT22;23697;48.684;9.032;2022-11-20T08:53:43;5.50;88.70
37322;DHT22;23697;48.684;9.032;2022-11-20T08:56:11;5.60;88.70
37322;DHT22;23697;48.684;9.032;2022-11-20T08:58:38;5.60;88.70
37322;DHT22;23697;48.684;9.032;2022-11-20T09:01:05;5.60;88.50
37322;DHT22;23697;48.684;9.032;2022-11-20T09:03:32;5.70;88.40
37322;DHT22;23697;48.684;9.032;2022-11-20T09:06:00;5.80;88.20
37322;DHT22;23697;48.684;9.032;2022-11-20T09:08:27;5.90;88.20
37322;DHT22;23697;48.684;9.032;2022-11-20T09:10:55;6.00;88.10
37322;DHT22;23697;48.684;9.032;2022-11-20T09:13:25;5.90;88.10
37322;DHT22;23697;48.684;9.032;2022-11-20T09:15:55;5.90;88.00
37322;DHT22;23697;48.684;9.032;2022-11-20T09:18:23;5.80;87.90
37322;DHT22;23697;48.684;9.032;2022-11-20T09:20:50;5.90;87.90
37322;DHT22;23697;48.684;9.032;2022-11-20T09:23:17;5.90;87.90
37322;DHT22;23697;48.684;9.032;2022-11-20T09:25:44;5.90;88.00
37322;DHT22;23697;48.684;9.032;2022-11-20T09:28:11;5.80;87.90
37322;DHT22;23697;48.684;9.032;2022-11-20T09:30:40;5.80;87.90
37322;DHT22;23697;48.684;9.032;2022-11-20T09:33:06;5.80;87.90
37322;DHT22;23697;48.684;9.032;2022-11-20T09:35:33;5.80;87.70
37322;DHT22;23697;48.684;9.032;2022-11-20T09:38:05;5.80;87.80
37322;DHT22;23697;48.684;9.032;2022-11-20T09:40:34;5.70;87.80
37322;DHT22;23697;48.684;9.032;2022-11-20T09:43:04;5.70;87.80
37322;DHT22;23697;48.684;9.032;2022-11-20T09:45:47;5.70;87.90
37322;DHT22;23697;48.684;9.032;2022-11-20T09:48:36;5.70;87.90
37322;DHT22;23697;48.684;9.032;2022-11-20T09:51:14;5.80;87.90
37322;DHT22;23697;48.684;9.032;2022-11-20T09:53:55;5.80;87.80
37322;DHT22;23697;48.684;9.032;2022-11-20T09:56:26;5.80;87.80
37322;DHT22;23697;48.684;9.032;2022-11-20T09:58:57;5.70;87.80
37322;DHT22;23697;48.684;9.032;2022-11-20T10:01:29;5.70;87.80
37322;DHT22;23697;48.684;9.032;2022-11-20T10:03:59;5.80;88.00
37322;DHT22;23697;48.684;9.032;2022-11-20T10:06:30;5.70;88.00
37322;DHT22;23697;48.684;9.032;2022-11-20T10:09:04;5.80;87.90
37322;DHT22;23697;48.684;9.032;2022-11-20T10:11:41;5.80;88.00
37322;DHT22;23697;48.684;9.032;2022-11-20T10:14:18;5.80;88.00
37322;DHT22;23697;48.684;9.032;2022-11-20T10:17:00;5.80;88.00
37322;DHT22;23697;48.684;9.032;2022-11-20T10:22:34;5.80;88.10
37322;DHT22;23697;48.684;9.032;2022-11-20T10:25:09;5.80;88.20
37322;DHT22;23697;48.684;9.032;2022-11-20T10:27:56;5.90;88.20
37322;DHT22;23697;48.684;9.032;2022-11-20T10:30:29;5.90;88.50
37322;DHT22;23697;48.684;9.032;2022-11-20T10:33:03;5.90;88.50
37322;DHT22;23697;48.684;9.032;2022-11-20T10:35:35;5.90;88.50
37322;DHT22;23697;48.684;9.032;2022-11-20T10:38:07;5.90;88.80
37322;DHT22;23697;48.684;9.032;2022-11-20T10:40:39;5.90;88.90
37322;DHT22;23697;48.684;9.032;2022-11-20T10:43:11;5.80;88.90
37322;DHT22;23697;48.684;9.032;2022-11-20T10:45:50;5.80;89.10
37322;DHT22;23697;48.684;9.032;2022-11-20T10:48:26;5.80;89.20
37322;DHT22;23697;48.684;9.032;2022-11-20T10:51:12;5.80;89.20
37322;DHT22;23697;48.684;9.032;2022-11-20T10:54:04;5.80;89.30
37322;DHT22;23697;48.684;9.032;2022-11-20T10:56:38;5.80;89.30
37322;DHT22;23697;48.684;9.032;2022-11-20T10:59:38;5.80;89.40
37322;DHT22;23697;48.684;9.032;2022-11-20T11:02:16;5.90;89.40
37322;DHT22;23697;48.684;9.032;2022-11-20T11:04:46;6.00;89.50
37322;DHT22;23697;48.684;9.032;2022-11-20T11:07:16;6.00;89.30
37322;DHT22;23697;48.684;9.032;2022-11-20T11:09:49;6.10;89.20
37322;DHT22;23697;48.684;9.032;2022-11-20T11:12:16;6.20;89.20
37322;DHT22;23697;48.684;9.032;2022-11-20T11:14:45;6.20;89.20
37322;DHT22;23697;48.684;9.032;2022-11-20T11:17:27;6.30;89.20
37322;DHT22;23697;48.684;9.032;2022-11-20T11:20:05;6.30;89.10
37322;DHT22;23697;48.684;9.032;2022-11-20T11:22:33;6.30;88.90
37322;DHT22;23697;48.684;9.032;2022-11-20T11:25:01;6.40;88.90
37322;DHT22;23697;48.684;9.032;2022-11-20T11:27:28;6.60;88.90
37322;DHT22;23697;48.684;9.032;2022-11-20T11:30:10;6.70;89.00
37322;DHT22;23697;48.684;9.032;2022-11-20T11:32:38;6.70;88.50
37322;DHT22;23697;48.684;9.032;2022-11-20T11:35:19;6.80;88.30
37322;DHT22;23697;48.684;9.032;2022-11-20T11:37:47;7.10;88.30
37322;DHT22;23697;48.684;9.032;2022-11-20T11:40:15;7.40;88.00
37322;DHT22;23697;48.684;9.032;2022-11-20T11:42:42;7.50;87.60
37322;DHT22;23697;48.684;9.032;2022-11-20T11:45:14;7.50;86.60
37322;DHT22;23697;48.684;9.032;2022-11-20T11:47:45;7.60;86.30
37322;DHT22;23697;48.684;9.032;2022-11-20T11:50:20;7.70;85.20
37322;DHT22;23697;48.684;9.032;2022-11-20T11:52:54;7.90;85.70
37322;DHT22;23697;48.684;9.032;2022-11-20T11:55:29;7.90;85.40
37322;DHT22;23697;48.684;9.032;2022-11-20T11:58:04;7.90;84.60
37322;DHT22;23697;48.684;9.032;2022-11-20T12:00:35;7.90;83.70
37322;DHT22;23697;48.684;9.032;2022-11-20T12:03:08;7.90;83.10
37322;DHT22;23697;48.684;9.032;2022-11-20T12:05:40;8.00;83.10
37322;DHT22;23697;48.684;9.032;2022-11-20T12:08:14;8.20;81.70
37322;DHT22;23697;48.684;9.032;2022-11-20T12:10:46;8.30;80.70
37322;DHT22;23697;48.684;9.032;2022-11-20T12:13:25;8.10;79.10
37322;DHT22;23697;48.684;9.032;2022-11-20T12:15:54;8.20;79.20
37322;DHT22;23697;48.684;9.032;2022-11-20T12:18:22;8.10;77.80
37322;DHT22;23697;48.684;9.032;2022-11-20T12:21:03;8.00;78.90
37322;DHT22;23697;48.684;9.032;2022-11-20T12:23:43;7.90;78.60
37322;DHT22;23697;48.684;9.032;2022-11-20T12:26:19;7.70;79.00
37322;DHT22;23697;48.684;9.032;2022-11-20T12:28:58;7.60;78.40
37322;DHT22;23697;48.684;9.032;2022-11-20T12:31:42;7.50;79.10
37322;DHT22;23697;48.684;9.032;2022-11-20T12:34:37;7.40;79.80
37322;DHT22;23697;48.684;9.032;2022-11-20T12:37:14;7.40;80.30
37322;DHT22;23697;48.684;9.032;2022-11-20T12:39:42;7.30;79.80
37322;DHT22;23697;48.684;9.032;2022-11-20T12:42:31;7.40;80.50
37322;DHT22;23697;48.684;9.032;2022-11-20T12:45:32;7.50;79.90
37322;DHT22;23697;48.684;9.032;2022-11-20T12:48:32;7.60;79.30
37322;DHT22;23697;48.684;9.032;2022-11-20T12:51:13;7.90;77.70
37322;DHT22;23697;48.684;9.032;2022-11-20T12:53:54;8.10;76.80
37322;DHT22;23697;48.684;9.032;2022-11-20T12:56:31;8.30;76.50
37322;DHT22;23697;48.684;9.032;2022-11-20T12:59:21;8.50;75.90
37322;DHT22;23697;48.684;9.032;2022-11-20T13:01:52;8.70;75.90
37322;DHT22;23697;48.684;9.032;2022-11-20T13:04:39;8.70;75.50
37322;DHT22;23697;48.684;9.032;2022-11-20T13:07:12;8.70;74.80
37322;DHT22;23697;48.684;9.032;2022-11-20T13:09:44;8.70;74.20
37322;DHT22;23697;48.684;9.032;2022-11-20T13:12:15;8.80;73.70
37322;DHT22;23697;48.684;9.032;2022-11-20T13:14:48;8.90;73.10
37322;DHT22;23697;48.684;9.032;2022-11-20T13:17:24;8.80;72.10
37322;DHT22;23697;48.684;9.032;2022-11-20T13:19:56;8.80;70.40
37322;DHT22;23697;48.684;9.032;2022-11-20T13:22:25;8.70;71.90
37322;DHT22;23697;48.684;9.032;2022-11-20T13:24:54;8.60;71.40
37322;DHT22;23697;48.684;9.032;2022-11-20T13:27:22;8.60;71.40
37322;DHT22;23697;48.684;9.032;2022-11-20T13:30:00;8.60;72.50
37322;DHT22;23697;48.684;9.032;2022-11-20T13:32:28;8.50;71.80
37322;DHT22;23697;48.684;9.032;2022-11-20T13:34:59;8.30;72.60
37322;DHT22;23697;48.684;9.032;2022-11-20T13:37:32;8.10;72.40
37322;DHT22;23697;48.684;9.032;2022-11-20T13:40:12;7.90;73.60
37322;DHT22;23697;48.684;9.032;2022-11-20T13:42:43;7.70;74.50
37322;DHT22;23697;48.684;9.032;2022-11-20T13:45:22;7.60;74.80
37322;DHT22;23697;48.684;9.032;2022-11-20T13:47:50;7.50;75.20
37322;DHT22;23697;48.684;9.032;2022-11-20T13:50:18;7.40;75.20
37322;DHT22;23697;48.684;9.032;2022-11-20T13:52:49;7.20;75.60
37322;DHT22;23697;48.684;9.032;2022-11-20T13:55:24;7.10;76.10
37322;DHT22;23697;48.684;9.032;2022-11-20T13:58:12;7.10;76.40
37322;DHT22;23697;48.684;9.032;2022-11-20T14:00:50;7.10;75.10
37322;DHT22;23697;48.684;9.032;2022-11-20T14:03:20;7.00;75.10
37322;DHT22;23697;48.684;9.032;2022-11-20T14:05:52;6.90;75.70
37322;DHT22;23697;48.684;9.032;2022-11-20T14:08:26;6.80;76.20
37322;DHT22;23697;48.684;9.032;2022-11-20T14:11:12;6.70;76.30
37322;DHT22;23697;48.684;9.032;2022-11-20T14:13:54;6.60;77.30
37322;DHT22;23697;48.684;9.032;2022-11-20T14:16:21;6.60;78.40
37322;DHT22;23697;48.684;9.032;2022-11-20T14:18:48;6.50;79.20
37322;DHT22;23697;48.684;9.032;2022-11-20T14:21:25;6.50;79.60
37322;DHT22;23697;48.684;9.032;2022-11-20T14:23:53;6.50;80.40
37322;DHT22;23697;48.684;9.032;2022-11-20T14:26:22;6.50;80.50
37322;DHT22;23697;48.684;9.032;2022-11-20T14:28:49;6.40;80.90
37322;DHT22;23697;48.684;9.032;2022-11-20T14:31:23;6.40;81.20
37322;DHT22;23697;48.684;9.032;2022-11-20T14:33:51;6.50;81.60
37322;DHT22;23697;48.684;9.032;2022-11-20T14:36:20;6.50;81.30
37322;DHT22;23697;48.684;9.032;2022-11-20T14:38:48;6.40;81.40
37322;DHT22;23697;48.684;9.032;2022-11-20T14:41:18;6.40;81.50
37322;DHT22;23697;48.684;9.032;2022-11-20T14:43:49;6.40;81.80
37322;DHT22;23697;48.684;9.032;2022-11-20T14:46:17;6.40;81.90
37322;DHT22;23697;48.684;9.032;2022-11-20T14:48:46;6.40;81.80
37322;DHT22;23697;48.684;9.032;2022-11-20T14:51:26;6.40;82.10
37322;DHT22;23697;48.684;9.032;2022-11-20T14:53:53;6.40;82.40
37322;DHT22;23697;48.684;9.032;2022-11-20T14:56:22;6.40;82.30
37322;DHT22;23697;48.684;9.032;2022-11-20T14:58:57;6.30;82.30
37322;DHT22;23697;48.684;9.032;2022-11-20T15:01:27;6.30;82.30
37322;DHT22;23697;48.684;9.032;2022-11-20T15:04:00;6.30;82.40
37322;DHT22;23697;48.684;9.032;2022-11-20T15:06:30;6.10;82.40
37322;DHT22;23697;48.684;9.032;2022-11-20T15:08:57;6.10;82.50
37322;DHT22;23697;48.684;9.032;2022-11-20T15:11:28;6.10;82.60
37322;DHT22;23697;48.684;9.032;2022-11-20T15:14:02;6.00;82.70
37322;DHT22;23697;48.684;9.032;2022-11-20T15:16:29;5.90;82.50
37322;DHT22;23697;48.684;9.032;2022-11-20T15:18:57;5.80;82.80
37322;DHT22;23697;48.684;9.032;2022-11-20T15:21:23;5.70;83.00
37322;DHT22;23697;48.684;9.032;2022-11-20T15:23:50;5.70;83.20
37322;DHT22;23697;48.684;9.032;2022-11-20T15:26:22;5.60;83.50
37322;DHT22;23697;48.684;9.032;2022-11-20T15:28:50;5.60;83.80
37322;DHT22;23697;48.684;9.032;2022-11-20T15:31:20;5.60;83.90
37322;DHT22;23697;48.684;9.032;2022-11-20T15:33:47;5.40;84.10
37322;DHT22;23697;48.684;9.032;2022-11-20T15:36:14;5.40;84.50
37322;DHT22;23697;48.684;9.032;2022-11-20T15:38:41;5.40;84.70
37322;DHT22;23697;48.684;9.032;2022-11-20T15:41:08;5.40;84.80
37322;DHT22;23697;48.684;9.032;2022-11-20T15:43:36;5.40;85.10
37322;DHT22;23697;48.684;9.032;2022-11-20T15:46:05;5.30;85.20
37322;DHT22;23697;48.684;9.032;2022-11-20T15:48:38;5.30;85.40
37322;DHT22;23697;48.684;9.032;2022-11-20T15:51:16;5.20;85.60
37322;DHT22;23697;48.684;9.032;2022-11-20T15:53:46;5.20;85.80
37322;DHT22;23697;48.684;9.032;2022-11-20T15:56:14;5.10;85.90
37322;DHT22;23697;48.684;9.032;2022-11-20T15:58:42;5.10;86.10
37322;DHT22;23697;48.684;9.032;2022-11-20T16:01:10;5.10;86.10
37322;DHT22;23697;48.684;9.032;2022-11-20T16:03:39;5.10;86.30
37322;DHT22;23697;48.684;9.032;2022-11-20T16:06:07;5.10;86.40
37322;DHT22;23697;48.684;9.032;2022-11-20T16:08:34;5.20;86.40
37322;DHT22;23697;48.684;9.032;2022-11-20T16:11:01;5.10;86.50